createdAt,value
2023-05-03T00:00:19.470Z,60.57
2023-05-03T00:01:19.482Z,60.84
2023-05-03T00:02:19.590Z,60.94
2023-05-03T00:03:19.544Z,61.11
2023-05-03T00:04:19.508Z,60.93
2023-05-03T00:05:19.596Z,60.74
2023-05-03T00:06:19.570Z,60.82
2023-05-03T00:07:19.575Z,60.60
2023-05-03T00:08:19.534Z,60.30
2023-05-03T00:09:19.532Z,60.34
2023-05-03T00:10:19.533Z,60.38
2023-05-03T00:11:19.550Z,60.16
2023-05-03T00:12:19.582Z,60.23
2023-05-03T00:13:19.565Z,60.98
2023-05-03T00:14:19.580Z,61.11
2023-05-03T00:15:19.587Z,60.75
2023-05-03T00:16:19.624Z,60.39
2023-05-03T00:17:19.603Z,60.58
2023-05-03T00:18:19.690Z,61.33
2023-05-03T00:19:28.328Z,61.89
2023-05-03T00:20:20.745Z,61.79
2023-05-03T00:21:19.690Z,61.45
2023-05-03T00:22:19.604Z,60.93
2023-05-03T00:23:19.577Z,60.61
2023-05-03T00:24:19.653Z,60.45
2023-05-03T00:25:19.598Z,60.35
2023-05-03T00:26:20.110Z,60.55
2023-05-03T00:27:19.592Z,60.88
2023-05-03T00:28:19.561Z,61.41
2023-05-03T00:29:19.573Z,62.05
2023-05-03T00:30:19.684Z,62.53
2023-05-03T00:31:19.741Z,62.73
2023-05-03T00:32:19.678Z,63.26
2023-05-03T00:33:19.699Z,63.48
2023-05-03T00:34:19.765Z,63.77
2023-05-03T00:35:19.845Z,63.75
2023-05-03T00:36:19.820Z,63.06
2023-05-03T00:37:19.860Z,63.22
2023-05-03T00:38:19.885Z,63.43
2023-05-03T00:39:19.956Z,63.59
2023-05-03T00:40:19.965Z,63.89
2023-05-03T00:41:20.000Z,64.24
2023-05-03T00:42:20.034Z,63.90
2023-05-03T00:43:20.068Z,63.79
2023-05-03T00:44:20.090Z,63.76
2023-05-03T00:45:20.096Z,63.67
2023-05-03T00:46:20.151Z,63.69
2023-05-03T00:47:20.268Z,63.48
2023-05-03T00:48:20.163Z,62.94
2023-05-03T00:49:20.176Z,62.54
2023-05-03T00:50:20.129Z,62.18
2023-05-03T00:51:20.135Z,61.86
2023-05-03T00:52:20.151Z,61.49
2023-05-03T00:53:20.249Z,61.04
2023-05-03T00:54:20.199Z,60.93
2023-05-03T00:55:20.251Z,60.81
2023-05-03T00:56:20.229Z,60.70
2023-05-03T00:57:20.251Z,60.31
2023-05-03T00:58:20.288Z,59.96
2023-05-03T00:59:20.297Z,59.81
2023-05-03T01:00:20.290Z,59.65
2023-05-03T01:01:20.297Z,59.79
2023-05-03T01:02:20.325Z,59.95
2023-05-03T01:03:20.379Z,59.96
2023-05-03T01:04:20.279Z,59.84
2023-05-03T01:05:20.278Z,60.22
2023-05-03T01:06:20.359Z,60.57
2023-05-03T01:07:20.290Z,60.98
2023-05-03T01:08:20.335Z,61.22
2023-05-03T01:09:20.330Z,61.60
2023-05-03T01:10:20.377Z,62.00
2023-05-03T01:11:20.337Z,62.03
2023-05-03T01:12:20.343Z,62.01
2023-05-03T01:13:20.333Z,62.04
2023-05-03T01:14:20.403Z,62.62
2023-05-03T01:15:20.403Z,62.73
2023-05-03T01:16:20.524Z,62.67
2023-05-03T01:17:20.419Z,62.40
2023-05-03T01:18:20.417Z,62.18
2023-05-03T01:19:20.477Z,62.51
2023-05-03T01:20:20.469Z,62.69
2023-05-03T01:21:20.499Z,62.17
2023-05-03T01:22:20.592Z,61.72
2023-05-03T01:23:20.603Z,61.29
2023-05-03T01:24:20.698Z,61.07
2023-05-03T01:25:20.691Z,60.93
2023-05-03T01:26:20.765Z,60.63
2023-05-03T01:27:20.746Z,60.23
2023-05-03T01:28:20.751Z,59.97
2023-05-03T01:29:20.814Z,60.06
2023-05-03T01:30:20.887Z,60.43
2023-05-03T01:31:20.978Z,60.41
2023-05-03T01:32:20.924Z,60.19
2023-05-03T01:33:20.931Z,60.04
2023-05-03T01:34:21.011Z,59.96
2023-05-03T01:35:21.024Z,59.76
2023-05-03T01:36:21.010Z,59.53
2023-05-03T01:37:21.027Z,59.57
2023-05-03T01:38:21.074Z,59.63
2023-05-03T01:39:21.205Z,59.93
2023-05-03T01:40:21.206Z,59.99
2023-05-03T01:41:21.237Z,60.37
2023-05-03T01:42:21.339Z,60.37
2023-05-03T01:43:21.344Z,60.29
2023-05-03T01:44:21.437Z,60.77
2023-05-03T01:45:21.496Z,61.81
2023-05-03T01:46:21.603Z,62.28
2023-05-03T01:47:21.578Z,61.94
2023-05-03T01:48:21.612Z,61.82
2023-05-03T01:49:21.699Z,61.67
2023-05-03T01:50:21.721Z,61.58
2023-05-03T01:51:21.833Z,61.93
2023-05-03T01:52:21.822Z,61.31
2023-05-03T01:53:21.866Z,60.41
2023-05-03T01:54:21.916Z,60.21
2023-05-03T01:55:21.910Z,59.99
2023-05-03T01:56:21.959Z,59.99
2023-05-03T01:57:21.969Z,59.96
2023-05-03T01:58:22.043Z,60.28
2023-05-03T01:59:22.141Z,60.20
2023-05-03T02:00:22.121Z,60.27
2023-05-03T02:01:22.234Z,60.75
2023-05-03T02:02:22.173Z,61.43
2023-05-03T02:03:22.609Z,60.98
2023-05-03T02:04:22.385Z,61.20
2023-05-03T02:05:22.357Z,61.97
2023-05-03T02:06:22.433Z,62.59
2023-05-03T02:07:22.444Z,62.47
2023-05-03T02:08:22.512Z,62.17
2023-05-03T02:09:22.565Z,61.78
2023-05-03T02:10:22.579Z,61.82
2023-05-03T02:11:22.595Z,61.84
2023-05-03T02:12:22.619Z,62.54
2023-05-03T02:13:22.661Z,62.86
2023-05-03T02:14:22.697Z,62.62
2023-05-03T02:15:22.681Z,62.08
2023-05-03T02:16:22.813Z,62.76
2023-05-03T02:17:22.742Z,62.81
2023-05-03T02:18:22.766Z,62.63
2023-05-03T02:19:22.841Z,63.20
2023-05-03T02:20:22.922Z,62.93
2023-05-03T02:21:22.910Z,62.48
2023-05-03T02:22:22.976Z,62.58
2023-05-03T02:23:23.059Z,62.87
2023-05-03T02:24:23.100Z,62.69
2023-05-03T02:25:23.131Z,62.69
2023-05-03T02:26:23.187Z,62.74
2023-05-03T02:27:23.198Z,62.49
2023-05-03T02:28:23.305Z,61.98
2023-05-03T02:29:23.355Z,61.63
2023-05-03T02:30:23.298Z,61.25
2023-05-03T02:31:23.382Z,61.17
2023-05-03T02:32:23.446Z,61.77
2023-05-03T02:33:23.502Z,62.61
2023-05-03T02:34:23.615Z,63.08
2023-05-03T02:35:23.596Z,63.31
2023-05-03T02:36:23.725Z,63.34
2023-05-03T02:37:23.719Z,63.67
2023-05-03T02:38:23.781Z,63.88
2023-05-03T02:39:23.833Z,63.00
2023-05-03T02:40:23.898Z,62.69
2023-05-03T02:41:23.932Z,62.76
2023-05-03T02:42:24.029Z,62.56
2023-05-03T02:43:24.058Z,61.88
2023-05-03T02:44:24.139Z,61.26
2023-05-03T02:45:24.124Z,61.17
2023-05-03T02:46:24.230Z,60.97
2023-05-03T02:47:24.216Z,60.65
2023-05-03T02:48:24.152Z,60.67
2023-05-03T02:49:24.147Z,60.52
2023-05-03T02:50:24.267Z,60.77
2023-05-03T02:51:24.210Z,60.74
2023-05-03T02:52:24.249Z,61.06
2023-05-03T02:53:24.268Z,60.91
2023-05-03T02:54:24.364Z,61.19
2023-05-03T02:55:24.334Z,61.26
2023-05-03T02:56:24.346Z,61.26
2023-05-03T02:57:24.418Z,61.30
2023-05-03T02:58:24.441Z,61.59
2023-05-03T02:59:24.525Z,61.41
2023-05-03T03:00:24.465Z,61.45
2023-05-03T03:01:24.534Z,61.25
2023-05-03T03:02:24.670Z,61.11
2023-05-03T03:03:24.668Z,60.92
2023-05-03T03:04:24.608Z,60.69
2023-05-03T03:05:24.604Z,60.58
2023-05-03T03:06:24.739Z,60.34
2023-05-03T03:07:24.712Z,60.25
2023-05-03T03:08:24.684Z,60.48
2023-05-03T03:09:24.772Z,60.56
2023-05-03T03:10:24.703Z,60.53
2023-05-03T03:11:24.770Z,60.56
2023-05-03T03:12:24.804Z,60.38
2023-05-03T03:13:24.818Z,60.52
2023-05-03T03:14:24.839Z,60.69
2023-05-03T03:15:24.841Z,60.77
2023-05-03T03:16:24.938Z,61.07
2023-05-03T03:17:25.737Z,61.27
2023-05-03T03:18:25.034Z,61.31
2023-05-03T03:19:25.086Z,61.39
2023-05-03T03:20:25.121Z,61.46
2023-05-03T03:21:25.165Z,61.79
2023-05-03T03:22:25.206Z,61.95
2023-05-03T03:23:25.256Z,61.89
2023-05-03T03:24:25.337Z,61.92
2023-05-03T03:25:25.328Z,61.90
2023-05-03T03:26:25.375Z,61.97
2023-05-03T03:27:25.419Z,61.85
2023-05-03T03:28:25.463Z,61.52
2023-05-03T03:29:25.470Z,61.60
2023-05-03T03:30:25.539Z,61.75
2023-05-03T03:31:25.605Z,61.64
2023-05-03T03:32:25.585Z,61.81
2023-05-03T03:33:25.640Z,61.73
2023-05-03T03:34:25.656Z,61.73
2023-05-03T03:35:25.642Z,61.66
2023-05-03T03:36:25.692Z,61.46
2023-05-03T03:37:25.727Z,61.58
2023-05-03T03:38:25.748Z,61.61
2023-05-03T03:39:25.830Z,61.58
2023-05-03T03:40:25.848Z,61.70
2023-05-03T03:41:25.925Z,61.59
2023-05-03T03:42:25.983Z,61.40
2023-05-03T03:43:26.010Z,60.99
2023-05-03T03:44:26.080Z,60.85
2023-05-03T03:45:26.110Z,61.13
2023-05-03T03:46:26.272Z,61.10
2023-05-03T03:47:26.276Z,60.94
2023-05-03T03:48:26.208Z,60.68
2023-05-03T03:49:26.251Z,60.49
2023-05-03T03:50:26.262Z,60.32
2023-05-03T03:51:26.332Z,60.26
2023-05-03T03:52:26.327Z,60.19
2023-05-03T03:53:26.432Z,60.69
2023-05-03T03:54:26.445Z,60.75
2023-05-03T03:55:26.499Z,60.85
2023-05-03T03:56:26.574Z,61.09
2023-05-03T03:57:26.577Z,61.05
2023-05-03T03:58:26.640Z,60.59
2023-05-03T03:59:26.672Z,60.18
2023-05-03T04:00:26.627Z,59.75
2023-05-03T04:01:26.723Z,59.42
2023-05-03T04:02:26.748Z,59.31
2023-05-03T04:03:26.754Z,58.98
2023-05-03T04:04:26.802Z,59.11
2023-05-03T04:05:26.696Z,59.17
2023-05-03T04:06:26.709Z,59.00
2023-05-03T04:07:26.738Z,59.05
2023-05-03T04:08:26.776Z,59.35
2023-05-03T04:09:26.874Z,59.22
2023-05-03T04:10:26.868Z,59.18
2023-05-03T04:11:26.918Z,59.44
2023-05-03T04:12:26.920Z,59.63
2023-05-03T04:13:26.921Z,59.51
2023-05-03T04:14:26.935Z,59.10
2023-05-03T04:15:26.958Z,59.04
2023-05-03T04:16:27.058Z,58.85
2023-05-03T04:17:27.042Z,58.83
2023-05-03T04:18:27.024Z,59.25
2023-05-03T04:19:27.039Z,59.17
2023-05-03T04:20:27.087Z,59.55
2023-05-03T04:21:27.127Z,59.38
2023-05-03T04:22:27.121Z,59.22
2023-05-03T04:23:27.084Z,59.45
2023-05-03T04:24:27.159Z,59.52
2023-05-03T04:25:27.155Z,59.46
2023-05-03T04:26:31.764Z,59.22
2023-05-03T04:27:28.106Z,59.21
2023-05-03T04:28:27.112Z,58.90
2023-05-03T04:29:27.152Z,58.63
2023-05-03T04:30:27.196Z,58.32
2023-05-03T04:31:27.192Z,58.09
2023-05-03T04:32:27.205Z,58.47
2023-05-03T04:33:27.101Z,58.21
2023-05-03T04:34:27.165Z,58.19
2023-05-03T04:35:27.084Z,58.47
2023-05-03T04:36:27.051Z,58.32
2023-05-03T04:37:27.090Z,58.15
2023-05-03T04:38:27.092Z,58.57
2023-05-03T04:39:27.078Z,58.62
2023-05-03T04:40:27.075Z,58.50
2023-05-03T04:41:27.138Z,58.49
2023-05-03T04:42:27.116Z,58.71
2023-05-03T04:43:27.168Z,58.53
2023-05-03T04:44:27.193Z,58.28
2023-05-03T04:45:27.287Z,57.83
2023-05-03T04:46:27.342Z,57.49
2023-05-03T04:47:27.329Z,57.63
2023-05-03T04:48:27.280Z,57.42
2023-05-03T04:49:27.329Z,57.58
2023-05-03T04:50:27.357Z,57.20
2023-05-03T04:51:27.335Z,57.30
2023-05-03T04:52:27.356Z,57.18
2023-05-03T04:53:27.373Z,57.24
2023-05-03T04:54:27.420Z,57.82
2023-05-03T04:55:27.455Z,57.74
2023-05-03T04:56:27.419Z,57.84
2023-05-03T04:57:27.443Z,57.64
2023-05-03T04:58:27.467Z,56.89
2023-05-03T04:59:28.232Z,56.77
2023-05-03T05:01:55.144Z,56.94
2023-05-03T05:02:47.432Z,56.71
2023-05-03T05:03:47.460Z,56.25
2023-05-03T05:04:47.387Z,55.77
2023-05-03T05:05:47.417Z,55.38
2023-05-03T05:06:47.425Z,55.03
2023-05-03T05:07:47.373Z,55.03
2023-05-03T05:08:47.381Z,55.15
2023-05-03T05:09:47.351Z,55.54
2023-05-03T05:10:47.362Z,55.32
2023-05-03T05:11:47.331Z,55.06
2023-05-03T05:12:47.378Z,54.96
2023-05-03T05:13:48.015Z,54.63
2023-05-03T05:14:47.362Z,54.43
2023-05-03T05:15:47.288Z,54.30
2023-05-03T05:16:47.388Z,54.27
2023-05-03T05:17:47.379Z,54.23
2023-05-03T05:18:48.610Z,54.02
2023-05-03T05:19:47.289Z,54.00
2023-05-03T05:20:47.301Z,53.94
2023-05-03T05:21:47.275Z,54.09
2023-05-03T05:22:47.300Z,54.07
2023-05-03T05:23:47.301Z,54.09
2023-05-03T05:24:47.255Z,53.91
2023-05-03T05:25:47.279Z,53.77
2023-05-03T05:26:47.383Z,53.96
2023-05-03T05:27:47.408Z,54.44
2023-05-03T05:28:47.486Z,54.26
2023-05-03T05:29:47.491Z,54.05
2023-05-03T05:30:47.541Z,53.89
2023-05-03T05:31:47.645Z,53.81
2023-05-03T05:32:47.625Z,53.43
2023-05-03T05:33:47.679Z,53.47
2023-05-03T05:34:48.317Z,53.49
2023-05-03T05:35:47.836Z,53.37
2023-05-03T05:36:47.920Z,53.34
2023-05-03T05:37:47.896Z,53.09
2023-05-03T05:38:47.999Z,53.50
2023-05-03T05:39:48.408Z,53.53
2023-05-03T05:40:47.988Z,53.94
2023-05-03T05:41:48.010Z,53.64
2023-05-03T05:42:48.012Z,53.39
2023-05-03T05:43:48.030Z,53.28
2023-05-03T05:44:48.226Z,53.33
2023-05-03T05:47:15.599Z,53.29
2023-05-03T05:48:08.779Z,52.89
2023-05-03T05:49:08.334Z,52.83
2023-05-03T05:50:17.041Z,52.35
2023-05-03T05:51:08.836Z,52.92
2023-05-03T05:52:07.897Z,53.00
2023-05-03T05:53:07.823Z,52.56
2023-05-03T05:54:08.566Z,52.31
2023-05-03T05:55:07.795Z,51.99
2023-05-03T05:56:07.771Z,52.26
2023-05-03T05:57:08.928Z,52.35
2023-05-03T05:58:07.791Z,52.39
2023-05-03T05:59:08.365Z,52.05
2023-05-03T06:00:07.801Z,51.61
2023-05-03T06:01:07.790Z,51.36
2023-05-03T06:02:07.831Z,51.67
2023-05-03T06:03:07.926Z,52.02
2023-05-03T06:04:08.760Z,52.02
2023-05-03T06:05:08.102Z,52.12
2023-05-03T06:06:07.933Z,52.30
2023-05-03T06:07:07.833Z,51.70
2023-05-03T06:08:07.900Z,51.75
2023-05-03T06:09:17.150Z,51.52
2023-05-03T06:10:08.908Z,51.55
2023-05-03T06:11:08.730Z,51.54
2023-05-03T06:12:07.881Z,51.45
2023-05-03T06:13:08.000Z,51.43
2023-05-03T06:14:07.970Z,50.94
2023-05-03T06:15:08.111Z,50.46
2023-05-03T06:16:08.209Z,50.02
2023-05-03T06:17:08.241Z,49.69
2023-05-03T06:18:08.217Z,49.53
2023-05-03T06:19:08.193Z,49.47
2023-05-03T06:20:08.241Z,50.14
2023-05-03T06:21:08.138Z,50.44
2023-05-03T06:22:08.180Z,50.84
2023-05-03T06:23:08.282Z,51.26
2023-05-03T06:24:08.784Z,51.01
2023-05-03T06:25:08.368Z,50.93
2023-05-03T06:26:08.394Z,51.07
2023-05-03T06:27:08.474Z,51.15
2023-05-03T06:28:08.391Z,51.19
2023-05-03T06:29:08.430Z,51.18
2023-05-03T06:30:08.409Z,51.91
2023-05-03T06:31:09.422Z,52.19
2023-05-03T06:32:08.411Z,52.03
2023-05-03T06:33:09.314Z,52.26
2023-05-03T06:34:10.383Z,52.16
2023-05-03T06:35:08.763Z,51.99
2023-05-03T06:36:08.442Z,51.91
2023-05-03T06:37:08.573Z,51.96
2023-05-03T06:38:08.549Z,52.21
2023-05-03T06:39:08.482Z,52.85
2023-05-03T06:40:08.799Z,52.95
2023-05-03T06:41:08.493Z,52.71
2023-05-03T06:42:09.188Z,52.37
2023-05-03T06:43:08.476Z,52.40
2023-05-03T06:44:08.604Z,52.01
2023-05-03T06:45:08.573Z,51.77
2023-05-03T06:46:08.650Z,51.93
2023-05-03T06:47:08.826Z,51.82
2023-05-03T06:48:08.658Z,51.68
2023-05-03T06:49:08.656Z,51.54
2023-05-03T06:50:08.609Z,51.56
2023-05-03T06:51:08.617Z,51.42
2023-05-03T06:52:11.522Z,51.25
2023-05-03T06:53:08.646Z,51.14
2023-05-03T06:54:08.665Z,51.09
2023-05-03T06:55:08.645Z,51.17
2023-05-03T06:56:08.597Z,50.95
2023-05-03T06:57:08.684Z,51.15
2023-05-03T06:58:08.572Z,51.02
2023-05-03T06:59:08.530Z,51.41
2023-05-03T07:00:08.589Z,51.72
2023-05-03T07:01:08.714Z,52.78
2023-05-03T07:02:08.806Z,52.98
2023-05-03T07:03:08.721Z,53.10
2023-05-03T07:04:09.574Z,53.47
2023-05-03T07:05:09.443Z,53.16
2023-05-03T07:06:08.565Z,52.58
2023-05-03T07:07:08.748Z,52.37
2023-05-03T07:08:08.577Z,51.99
2023-05-03T07:09:09.242Z,51.61
2023-05-03T07:10:08.611Z,51.15
2023-05-03T07:11:08.552Z,50.69
2023-05-03T07:12:08.512Z,50.56
2023-05-03T07:13:08.575Z,50.13
2023-05-03T07:14:08.521Z,49.95
2023-05-03T07:15:08.836Z,50.07
2023-05-03T07:16:08.507Z,49.86
2023-05-03T07:17:08.505Z,49.81
2023-05-03T07:18:08.595Z,49.94
2023-05-03T07:19:08.511Z,49.86
2023-05-03T07:20:09.241Z,49.50
2023-05-03T07:21:09.464Z,49.40
2023-05-03T07:22:08.416Z,49.82
2023-05-03T07:23:08.446Z,49.85
2023-05-03T07:24:08.491Z,50.16
2023-05-03T07:25:08.631Z,51.43
2023-05-03T07:26:08.477Z,50.97
2023-05-03T07:27:08.392Z,51.19
2023-05-03T07:28:08.456Z,51.15
2023-05-03T07:29:08.525Z,51.49
2023-05-03T07:30:08.425Z,51.82
2023-05-03T07:31:08.415Z,51.67
2023-05-03T07:32:08.407Z,51.61
2023-05-03T07:33:08.594Z,51.46
2023-05-03T07:34:09.362Z,51.59
2023-05-03T07:35:09.371Z,51.26
2023-05-03T07:36:08.479Z,50.93
2023-05-03T07:37:08.458Z,51.02
2023-05-03T07:38:08.481Z,51.23
2023-05-03T07:39:08.633Z,51.41
2023-05-03T07:40:08.739Z,50.94
2023-05-03T07:41:08.483Z,50.47
2023-05-03T07:42:08.564Z,50.55
2023-05-03T07:43:08.512Z,50.02
2023-05-03T07:44:08.530Z,50.15
2023-05-03T07:45:08.619Z,50.08
2023-05-03T07:46:08.552Z,50.57
2023-05-03T07:47:08.584Z,50.41
2023-05-03T07:48:08.667Z,50.10
2023-05-03T07:49:08.743Z,50.33
2023-05-03T07:50:08.844Z,49.81
2023-05-03T07:51:08.780Z,48.80
2023-05-03T07:52:08.815Z,48.50
2023-05-03T07:53:08.880Z,48.20
2023-05-03T07:54:08.984Z,48.27
2023-05-03T07:55:09.210Z,49.12
2023-05-03T07:56:09.089Z,48.02
2023-05-03T07:57:09.084Z,47.20
2023-05-03T07:58:09.156Z,46.31
2023-05-03T07:59:10.583Z,45.86
2023-05-03T08:00:09.823Z,45.52
2023-05-03T08:01:09.223Z,45.87
2023-05-03T08:02:09.322Z,46.23
2023-05-03T08:03:09.584Z,46.41
2023-05-03T08:04:09.528Z,47.10
2023-05-03T08:05:10.140Z,47.62
2023-05-03T08:06:09.441Z,48.40
2023-05-03T08:07:09.437Z,47.88
2023-05-03T08:08:09.402Z,47.41
2023-05-03T08:09:09.541Z,46.92
2023-05-03T08:10:09.517Z,46.82
2023-05-03T08:11:09.505Z,46.30
2023-05-03T08:12:09.579Z,46.21
2023-05-03T08:13:09.598Z,46.02
2023-05-03T08:14:09.633Z,46.58
2023-05-03T08:15:09.626Z,46.46
2023-05-03T08:16:09.890Z,46.37
2023-05-03T08:17:09.761Z,46.52
2023-05-03T08:18:09.765Z,46.28
2023-05-03T08:19:09.780Z,46.44
2023-05-03T08:20:09.787Z,45.51
2023-05-03T08:21:09.903Z,45.13
2023-05-03T08:22:09.855Z,44.84
2023-05-03T08:23:10.087Z,45.07
2023-05-03T08:24:09.822Z,44.99
2023-05-03T08:25:09.816Z,44.97
2023-05-03T08:26:09.915Z,45.33
2023-05-03T08:27:09.907Z,45.69
2023-05-03T08:28:10.050Z,44.90
2023-05-03T08:29:10.002Z,44.31
2023-05-03T08:30:10.053Z,44.97
2023-05-03T08:31:10.557Z,45.41
2023-05-03T08:32:10.092Z,46.11
2023-05-03T08:33:10.171Z,44.82
2023-05-03T08:34:10.090Z,44.47
2023-05-03T08:35:10.152Z,44.31
2023-05-03T08:36:10.404Z,43.82
2023-05-03T08:37:10.181Z,43.66
2023-05-03T08:38:10.395Z,42.85
2023-05-03T08:39:10.333Z,42.38
2023-05-03T08:40:10.379Z,41.18
2023-05-03T08:41:10.351Z,41.09
2023-05-03T08:42:10.259Z,40.79
2023-05-03T08:43:10.347Z,40.42
2023-05-03T08:44:10.338Z,40.60
2023-05-03T08:45:10.261Z,40.80
2023-05-03T08:46:10.477Z,41.32
2023-05-03T08:47:10.477Z,40.59
2023-05-03T08:48:10.479Z,40.37
2023-05-03T08:49:10.503Z,41.37
2023-05-03T08:50:10.465Z,40.97
2023-05-03T08:51:10.804Z,40.79
2023-05-03T08:52:10.585Z,40.93
2023-05-03T08:53:10.642Z,40.46
2023-05-03T08:54:10.716Z,40.13
2023-05-03T08:55:10.780Z,39.80
2023-05-03T08:56:11.256Z,40.00
2023-05-03T08:57:10.835Z,39.77
2023-05-03T08:58:10.924Z,39.11
2023-05-03T08:59:10.895Z,39.19
2023-05-03T09:00:10.926Z,39.40
2023-05-03T09:01:11.301Z,39.79
2023-05-03T09:02:11.292Z,39.37
2023-05-03T09:03:11.115Z,40.06
2023-05-03T09:04:11.148Z,40.74
2023-05-03T09:05:11.168Z,40.84
2023-05-03T09:06:11.769Z,41.27
2023-05-03T09:07:11.250Z,41.12
2023-05-03T09:08:11.306Z,40.63
2023-05-03T09:09:11.413Z,40.44
2023-05-03T09:10:11.356Z,40.40
2023-05-03T09:11:11.811Z,40.33
2023-05-03T09:12:11.490Z,40.56
2023-05-03T09:13:12.286Z,40.33
2023-05-03T09:14:11.446Z,40.79
2023-05-03T09:15:11.503Z,39.76
2023-05-03T09:16:11.645Z,39.11
2023-05-03T09:17:11.621Z,38.62
2023-05-03T09:18:11.872Z,38.22
2023-05-03T09:19:11.900Z,38.69
2023-05-03T09:20:11.722Z,39.09
2023-05-03T09:21:11.818Z,38.38
2023-05-03T09:22:11.823Z,38.17
2023-05-03T09:23:11.820Z,39.11
2023-05-03T09:24:11.856Z,38.99
2023-05-03T09:25:11.868Z,39.11
2023-05-03T09:26:11.986Z,38.66
2023-05-03T09:27:12.012Z,37.98
2023-05-03T09:28:12.034Z,38.46
2023-05-03T09:29:12.122Z,38.71
2023-05-03T09:30:12.095Z,38.78
2023-05-03T09:31:13.456Z,38.62
2023-05-03T09:32:12.334Z,38.13
2023-05-03T09:33:12.270Z,38.58
2023-05-03T09:34:12.225Z,38.11
2023-05-03T09:35:12.352Z,38.58
2023-05-03T09:36:12.359Z,38.93
2023-05-03T09:37:12.437Z,38.92
2023-05-03T09:38:12.449Z,38.79
2023-05-03T09:39:12.481Z,38.91
2023-05-03T09:40:12.506Z,39.54
2023-05-03T09:41:12.799Z,39.42
2023-05-03T09:42:12.600Z,39.31
2023-05-03T09:43:12.621Z,39.19
2023-05-03T09:44:12.635Z,38.89
2023-05-03T09:45:12.668Z,38.96
2023-05-03T09:46:12.767Z,38.79
2023-05-03T09:47:12.756Z,38.51
2023-05-03T09:48:12.865Z,37.92
2023-05-03T09:49:12.771Z,37.75
2023-05-03T09:50:12.806Z,37.46
2023-05-03T09:51:12.930Z,37.12
2023-05-03T09:52:12.891Z,36.98
2023-05-03T09:53:13.060Z,36.93
2023-05-03T09:54:12.936Z,37.36
2023-05-03T09:55:13.042Z,37.24
2023-05-03T09:56:13.782Z,37.35
2023-05-03T09:57:13.018Z,36.73
2023-05-03T09:58:13.023Z,36.90
2023-05-03T09:59:13.123Z,37.47
2023-05-03T10:00:13.093Z,37.05
2023-05-03T10:01:13.174Z,37.53
2023-05-03T10:02:13.142Z,37.40
2023-05-03T10:03:13.286Z,37.43
2023-05-03T10:04:13.201Z,37.35
2023-05-03T10:05:13.683Z,36.52
2023-05-03T10:06:13.360Z,36.11
2023-05-03T10:07:13.295Z,35.94
2023-05-03T10:08:13.353Z,36.27
2023-05-03T10:09:13.416Z,36.24
2023-05-03T10:10:13.444Z,36.12
2023-05-03T10:11:13.420Z,37.12
2023-05-03T10:12:13.512Z,37.14
2023-05-03T10:13:13.534Z,36.58
2023-05-03T10:14:13.487Z,36.34
2023-05-03T10:15:13.504Z,36.30
2023-05-03T10:16:13.635Z,36.24
2023-05-03T10:17:13.614Z,36.43
2023-05-03T10:18:13.705Z,36.74
2023-05-03T10:19:14.398Z,37.22
2023-05-03T10:20:13.655Z,37.65
2023-05-03T10:21:13.801Z,36.65
2023-05-03T10:22:13.718Z,37.28
2023-05-03T10:23:13.808Z,37.22
2023-05-03T10:24:13.846Z,37.19
2023-05-03T10:25:15.434Z,36.91
2023-05-03T10:26:13.891Z,36.58
2023-05-03T10:27:13.957Z,36.60
2023-05-03T10:28:13.989Z,36.70
2023-05-03T10:29:13.998Z,36.23
2023-05-03T10:30:14.006Z,36.79
2023-05-03T10:31:14.149Z,36.62
2023-05-03T10:32:14.016Z,36.19
2023-05-03T10:33:14.330Z,36.66
2023-05-03T10:34:14.136Z,36.94
2023-05-03T10:35:14.254Z,37.25
2023-05-03T10:36:14.250Z,37.82
2023-05-03T10:37:14.267Z,37.74
2023-05-03T10:38:14.724Z,37.77
2023-05-03T10:39:14.948Z,36.99
2023-05-03T10:40:14.468Z,36.67
2023-05-03T10:41:15.059Z,37.06
2023-05-03T10:42:14.488Z,36.77
2023-05-03T10:43:14.490Z,37.14
2023-05-03T10:44:14.411Z,37.05
2023-05-03T10:45:14.423Z,36.49
2023-05-03T10:46:14.441Z,36.16
2023-05-03T10:47:14.387Z,36.02
2023-05-03T10:48:14.422Z,35.80
2023-05-03T10:49:14.372Z,35.47
2023-05-03T10:50:14.865Z,35.37
2023-05-03T10:51:14.433Z,35.34
2023-05-03T10:52:14.394Z,35.43
2023-05-03T10:53:14.410Z,35.93
2023-05-03T10:54:14.467Z,36.45
2023-05-03T10:55:14.442Z,36.42
2023-05-03T10:56:14.472Z,36.47
2023-05-03T10:57:14.524Z,35.97
2023-05-03T10:58:14.555Z,36.37
2023-05-03T10:59:14.647Z,37.34
2023-05-03T11:00:14.667Z,37.63
2023-05-03T11:01:14.985Z,37.43
2023-05-03T11:02:14.748Z,37.33
2023-05-03T11:03:14.770Z,36.93
2023-05-03T11:04:14.825Z,36.57
2023-05-03T11:05:14.860Z,36.46
2023-05-03T11:06:15.357Z,36.55
2023-05-03T11:07:14.881Z,36.57
2023-05-03T11:08:14.962Z,36.03
2023-05-03T11:09:15.000Z,35.96
2023-05-03T11:10:15.005Z,36.10
2023-05-03T11:11:15.066Z,35.79
2023-05-03T11:12:15.421Z,35.20
2023-05-03T11:13:15.062Z,35.28
2023-05-03T11:14:15.157Z,35.29
2023-05-03T11:15:15.225Z,35.43
2023-05-03T11:16:15.272Z,35.57
2023-05-03T11:17:15.477Z,35.97
2023-05-03T11:18:15.367Z,36.63
2023-05-03T11:19:16.486Z,36.56
2023-05-03T11:20:15.738Z,36.55
2023-05-03T11:21:15.992Z,36.48
2023-05-03T11:22:15.862Z,36.71
2023-05-03T11:23:15.592Z,36.23
2023-05-03T11:24:15.877Z,36.56
2023-05-03T11:25:15.662Z,36.26
2023-05-03T11:26:17.077Z,35.65
2023-05-03T11:27:15.877Z,35.28
2023-05-03T11:28:15.634Z,35.38
2023-05-03T11:29:15.564Z,34.49
2023-05-03T11:30:15.547Z,35.17
2023-05-03T11:31:15.633Z,35.65
2023-05-03T11:32:15.978Z,35.18
2023-05-03T11:33:15.618Z,34.56
2023-05-03T11:34:15.554Z,34.94
2023-05-03T11:35:15.577Z,34.70
2023-05-03T11:36:15.486Z,34.32
2023-05-03T11:37:15.870Z,34.53
2023-05-03T11:38:15.480Z,32.96
2023-05-03T11:39:15.496Z,32.43
2023-05-03T11:40:15.492Z,32.00
2023-05-03T11:41:15.519Z,31.42
2023-05-03T11:42:15.608Z,31.68
2023-05-03T11:43:15.477Z,32.11
2023-05-03T11:44:17.767Z,32.14
2023-05-03T11:45:15.482Z,31.56
2023-05-03T11:46:15.484Z,31.36
2023-05-03T11:47:15.534Z,30.91
2023-05-03T11:48:15.478Z,31.26
2023-05-03T11:49:15.453Z,31.31
2023-05-03T11:50:15.402Z,31.59
2023-05-03T11:51:15.382Z,32.28
2023-05-03T11:52:15.376Z,31.46
2023-05-03T11:53:15.385Z,31.14
2023-05-03T11:54:25.057Z,30.41
2023-05-03T11:55:16.370Z,29.80
2023-05-03T11:56:15.458Z,29.45
2023-05-03T11:57:15.410Z,29.56
2023-05-03T11:58:15.920Z,29.74
2023-05-03T11:59:15.336Z,29.99
2023-05-03T12:00:15.341Z,29.19
2023-05-03T12:01:15.336Z,29.44
2023-05-03T12:02:15.429Z,28.79
2023-05-03T12:03:15.484Z,28.37
2023-05-03T12:04:15.418Z,28.60
2023-05-03T12:05:16.205Z,28.97
2023-05-03T12:06:16.268Z,29.06
2023-05-03T12:07:18.517Z,29.34
2023-05-03T12:08:16.341Z,28.75
2023-05-03T12:09:15.797Z,28.51
2023-05-03T12:10:20.296Z,27.79
2023-05-03T12:11:18.022Z,27.83
2023-05-03T12:12:18.454Z,27.39
2023-05-03T12:13:17.358Z,27.09
2023-05-03T12:14:16.057Z,27.02
2023-05-03T12:15:16.712Z,26.94
2023-05-03T12:16:15.799Z,27.58
2023-05-03T12:17:16.012Z,27.58
2023-05-03T12:18:15.764Z,27.06
2023-05-03T12:19:16.579Z,27.47
2023-05-03T12:22:24.805Z,27.70
2023-05-03T12:23:16.853Z,27.44
2023-05-03T12:24:15.756Z,27.10
2023-05-03T12:25:16.170Z,26.89
2023-05-03T12:26:17.321Z,27.07
2023-05-03T12:27:17.437Z,27.15
2023-05-03T12:28:20.181Z,26.81
2023-05-03T12:29:17.856Z,26.87
2023-05-03T12:30:17.721Z,26.75
2023-05-03T12:31:17.836Z,26.88
2023-05-03T12:32:15.937Z,27.14
2023-05-03T12:33:16.523Z,27.75
2023-05-03T12:34:32.667Z,27.80
2023-05-03T12:35:19.505Z,27.45
2023-05-03T12:36:16.022Z,27.59
2023-05-03T12:38:17.054Z,28.05
2023-05-03T12:40:32.623Z,27.89
2023-05-03T12:41:33.172Z,27.06
2023-05-03T12:42:17.014Z,27.60
2023-05-03T12:43:15.973Z,27.20
2023-05-03T12:45:16.125Z,26.94
2023-05-03T12:46:32.953Z,26.92
2023-05-03T12:47:24.433Z,27.36
2023-05-03T12:48:16.954Z,28.10
2023-05-03T12:49:16.090Z,27.46
2023-05-03T12:50:18.634Z,27.63
2023-05-03T12:52:35.234Z,27.55
2023-05-03T12:53:17.790Z,27.50
2023-05-03T12:54:18.773Z,27.46
2023-05-03T12:56:16.107Z,27.19
2023-05-03T12:57:16.405Z,27.53
2023-05-03T12:58:36.797Z,27.17
2023-05-03T13:00:16.117Z,27.00
2023-05-03T13:02:05.095Z,27.22
2023-05-03T13:03:20.516Z,27.10
2023-05-03T13:04:27.470Z,26.83